NCAR-RAP Real-Time Weather Data

Output produced by METARs form (23 June 2018  19:29 UTC)
found at http://weather.rap.ucar.edu/surface/
 
RJBT 230900Z VRB02KT 9999 FEW015 SCT090 BKN120 22/20 Q1004
RJBT 230800Z 19005KT 9999 FEW015 SCT090 BKN120 23/20 Q1004
RJBT 230700Z 22004KT 180V260 9999 -RA FEW010 SCT080 BKN120 23/19 Q1004
RJBT 230600Z 17005KT 100V210 9999 FEW010 SCT100 BKN120 23/22 Q1003
RJBT 230500Z VRB03KT 9999 -RA FEW000 SCT070 BKN100 21/21 Q1003
RJBT 230400Z 24003KT 9999 -RA FEW000 SCT070 BKN090 22/21 Q1004
RJBT 230300Z 24003KT 9999 -RA NSC 22/21 Q1004
RJBT 230200Z VRB02KT CAVOK 22/20 Q1004
RJBT 230100Z 22003KT 180V260 9999 FEW000 SCT100 BKN120 22/17 Q1004
RJBT 230000Z VRB02KT 9999 FEW000 SCT100 BKN120 19/18 Q1004
RJBT 222330Z 02003KT 320V050 9999 -RA PRFG FEW000 SCT100 BKN120 18/18 Q1004
RJBT 220900Z 36003KT 330V050 9999 FEW050 BKN/// 24/14 Q1008
RJBT 220800Z 04003KT 310V100 9999 FEW040 BKN/// 26/14 Q1008
RJBT 220700Z 02005KT 340V060 9999 FEW040 BKN/// 26/13 Q1008
RJBT 220600Z 01007KT 330V050 9999 FEW040 BKN/// 26/13 Q1008
RJBT 220500Z 02005KT 320V100 9999 FEW040 BKN/// 27/14 Q1008
RJBT 220400Z 01005KT 320V070 9999 FEW040 BKN/// 28/14 Q1009
RJBT 220300Z 03004KT 310V110 9999 FEW040 BKN/// 27/13 Q1009
RJBT 220200Z 36003KT 290V060 9999 FEW040 BKN/// 26/13 Q1010
RJBT 220100Z VRB02KT 9999 FEW040 BKN/// 23/13 Q1010
RJBT 220000Z 21004KT 160V250 CAVOK 22/14 Q1010
RJBT 212330Z 18004KT 150V220 CAVOK 20/14 Q1010
RJBT 210900Z 03006KT 350V070 9999 FEW030 SCT/// 23/15 Q1006
RJBT 210800Z 36005KT 320V030 9999 FEW030 SCT/// 25/14 Q1005